Time;durP1;ratioP1;P1;durP2;ratioP2;P2;SDS_P1;SDS_P2;PMS_P1;PMS_P2;Temp;Humidity;BMP_temperature;BMP_pressure;BME280_temperature;BME280_humidity;BME280_pressure;Samples;Min_cycle;Max_cycle;Signal;HPM_P1;HPM_P2
2021/07/14 00:02:07;;;;;;;3.25;0.60;;;15.80;76.80;;;;;;5089316;28;20028;-64
2021/07/14 00:04:35;;;;;;;2.35;0.52;;;15.80;77.00;;;;;;5082320;27;20032;-63
2021/07/14 00:07:00;;;;;;;1.70;0.52;;;15.80;77.10;;;;;;5104829;27;20024;-63
2021/07/14 00:09:26;;;;;;;1.08;0.50;;;15.80;77.10;;;;;;5086014;27;20388;-63
2021/07/14 00:11:59;;;;;;;0.90;0.45;;;15.80;77.20;;;;;;5080715;28;20519;-63
2021/07/14 00:14:35;;;;;;;2.03;0.60;;;15.80;77.20;;;;;;5084510;28;20036;-63
2021/07/14 00:17:16;;;;;;;1.60;0.50;;;15.80;77.30;;;;;;5089370;28;20024;-63
2021/07/14 00:22:27;;;;;;;0.65;0.32;;;15.80;77.20;;;;;;5088102;27;20351;-63
2021/07/14 00:24:53;;;;;;;0.52;0.40;;;15.80;78.00;;;;;;5079763;28;20447;-63
2021/07/14 00:27:19;;;;;;;2.63;0.30;;;15.80;77.30;;;;;;5084303;28;20071;-63
2021/07/14 00:29:52;;;;;;;3.40;0.45;;;15.80;77.40;;;;;;5088206;27;20047;-63
2021/07/14 00:32:18;;;;;;;0.82;0.40;;;15.80;77.50;;;;;;5088260;28;20039;-63
2021/07/14 00:34:44;;;;;;;2.53;0.40;;;15.80;77.70;;;;;;5078453;27;20039;-63
2021/07/14 00:37:11;;;;;;;0.50;0.50;;;15.70;78.70;;;;;;5089197;27;20036;-63
2021/07/14 00:39:37;;;;;;;2.80;0.63;;;15.70;78.70;;;;;;5089493;28;20032;-63
2021/07/14 00:42:05;;;;;;;2.05;0.40;;;15.70;78.10;;;;;;5088359;28;20043;-63
2021/07/14 00:44:31;;;;;;;0.88;0.43;;;15.70;78.00;;;;;;5082740;27;20101;-63
2021/07/14 00:47:00;;;;;;;1.00;0.40;;;15.70;78.00;;;;;;5089189;28;20043;-63
2021/07/14 00:49:27;;;;;;;3.38;0.60;;;15.70;78.10;;;;;;5088924;27;20032;-63
2021/07/14 00:51:53;;;;;;;0.70;0.57;;;15.70;78.00;;;;;;5084466;28;20035;-63
2021/07/14 00:54:18;;;;;;;1.88;0.60;;;15.70;78.10;;;;;;5087924;28;20135;-62
2021/07/14 00:56:46;;;;;;;0.57;0.57;;;15.70;78.20;;;;;;5086057;27;20044;-63
2021/07/14 00:59:12;;;;;;;3.13;0.50;;;15.70;78.10;;;;;;5090069;28;20024;-63
2021/07/14 01:01:37;;;;;;;1.80;0.80;;;15.70;78.00;;;;;;5083443;28;20032;-63
2021/07/14 01:04:13;;;;;;;5.38;0.70;;;15.70;78.00;;;;;;5087160;28;20024;-63
2021/07/14 01:06:54;;;;;;;4.88;0.80;;;15.70;78.20;;;;;;5085322;28;20040;-63
2021/07/14 01:10:08;;;;;;;1.15;0.60;;;15.80;78.20;;;;;;5086926;27;20082;-63
2021/07/14 01:12:55;;;;;;;1.10;0.68;;;15.70;78.20;;;;;;5047199;27;21760;-63
2021/07/14 01:15:22;;;;;;;1.42;0.70;;;15.80;78.00;;;;;;5102051;27;20618;-63
2021/07/14 01:17:57;;;;;;;3.03;0.52;;;15.80;77.70;;;;;;5102396;27;20051;-63
2021/07/14 01:20:29;;;;;;;0.60;0.50;;;15.70;77.80;;;;;;5080820;27;20021;-63
2021/07/14 01:23:07;;;;;;;0.50;0.38;;;15.80;77.80;;;;;;5082571;27;20028;-63
2021/07/14 01:25:51;;;;;;;0.85;0.57;;;15.80;77.90;;;;;;5087356;27;20084;-63
2021/07/14 01:28:22;;;;;;;2.63;0.60;;;15.80;78.20;;;;;;5085394;27;20032;-63
2021/07/14 01:30:51;;;;;;;2.15;0.60;;;15.80;78.50;;;;;;5086135;28;20048;-63
2021/07/14 01:33:21;;;;;;;2.05;0.60;;;15.80;77.70;;;;;;5101715;27;20122;-63
2021/07/14 01:35:50;;;;;;;2.03;0.50;;;15.80;77.80;;;;;;5082573;28;20039;-63
2021/07/14 01:38:18;;;;;;;1.65;0.60;;;15.80;77.70;;;;;;5082346;27;20674;-63
2021/07/14 01:40:46;;;;;;;2.55;0.55;;;15.80;77.90;;;;;;5085776;27;20076;-63
2021/07/14 01:43:13;;;;;;;1.58;0.77;;;15.80;77.90;;;;;;5085294;28;20273;-63
2021/07/14 01:45:40;;;;;;;1.30;0.90;;;15.80;78.00;;;;;;5090238;27;20487;-63
2021/07/14 01:48:10;;;;;;;1.98;0.80;;;15.80;78.20;;;;;;5086203;28;20119;-63
2021/07/14 01:50:37;;;;;;;1.52;0.60;;;15.80;78.20;;;;;;5079940;28;20507;-63
2021/07/14 01:53:03;;;;;;;1.45;0.70;;;15.80;77.90;;;;;;5086278;27;20089;-63
2021/07/14 01:55:33;;;;;;;2.03;0.75;;;15.80;77.90;;;;;;5081204;28;20040;-63
2021/07/14 01:58:01;;;;;;;0.90;0.63;;;15.90;78.00;;;;;;5083113;28;20032;-63
2021/07/14 02:00:28;;;;;;;2.03;0.82;;;15.80;77.90;;;;;;5086433;27;20039;-62
2021/07/14 02:03:29;;;;;;;2.05;0.77;;;15.80;78.10;;;;;;5079723;28;20040;-63
2021/07/14 02:05:43;;;;;;;1.30;0.93;;;15.80;78.00;;;;;;5081314;27;20086;-63
2021/07/14 02:08:08;;;;;;;1.83;0.75;;;15.90;78.00;;;;;;5077043;28;20032;-63
2021/07/14 02:10:36;;;;;;;3.42;1.10;;;15.80;77.90;;;;;;5082855;27;20036;-63
2021/07/14 02:13:04;;;;;;;2.35;1.20;;;15.90;77.90;;;;;;5086307;27;20058;-63
2021/07/14 02:15:31;;;;;;;1.67;1.00;;;15.80;77.90;;;;;;5079522;27;20047;-63
2021/07/14 02:18:06;;;;;;;3.85;1.10;;;15.70;77.90;;;;;;5082059;27;20115;-63
2021/07/14 02:20:32;;;;;;;2.72;1.00;;;15.70;78.20;;;;;;5085436;27;20033;-63
2021/07/14 02:22:57;;;;;;;1.67;0.95;;;15.70;78.10;;;;;;5084664;27;20040;-63
2021/07/14 02:25:24;;;;;;;1.08;0.90;;;15.70;79.10;;;;;;5082618;27;20067;-63
2021/07/14 02:27:49;;;;;;;3.10;0.98;;;15.70;78.40;;;;;;5083852;28;20036;-64
2021/07/14 02:30:21;;;;;;;2.05;1.15;;;15.70;78.40;;;;;;5085889;27;20062;-63
2021/07/14 02:33:07;;;;;;;6.43;1.20;;;15.70;78.50;;;;;;5084378;27;20860;-63
2021/07/14 02:35:43;;;;;;;1.63;1.05;;;15.70;78.60;;;;;;5087161;27;20044;-63
2021/07/14 02:38:23;;;;;;;1.02;0.95;;;15.70;78.40;;;;;;5083986;28;20043;-64
2021/07/14 02:41:06;;;;;;;1.60;1.20;;;15.80;78.20;;;;;;5087908;27;20032;-63
2021/07/14 02:43:35;;;;;;;1.05;0.95;;;15.80;78.40;;;;;;5084567;28;20028;-63
2021/07/14 02:46:08;;;;;;;2.17;0.98;;;15.80;78.20;;;;;;5083662;27;20452;-63
2021/07/14 02:48:34;;;;;;;2.63;1.10;;;15.80;78.40;;;;;;5086213;27;20039;-63
2021/07/14 02:51:01;;;;;;;1.42;1.00;;;15.80;78.40;;;;;;5085203;28;20040;-63
2021/07/14 02:53:32;;;;;;;3.03;1.40;;;15.80;78.40;;;;;;5083761;27;20124;-63
2021/07/14 02:56:01;;;;;;;3.20;1.23;;;15.80;78.40;;;;;;5086428;28;20095;-63
2021/07/14 02:58:32;;;;;;;2.65;1.20;;;15.80;79.00;;;;;;5098455;27;20058;-63
2021/07/14 03:01:01;;;;;;;1.85;1.00;;;15.80;78.40;;;;;;5080565;28;20089;-63
2021/07/14 03:03:27;;;;;;;1.83;1.13;;;15.80;78.20;;;;;;5081680;28;20040;-63
2021/07/14 03:06:00;;;;;;;2.78;1.20;;;15.80;78.20;;;;;;5085168;27;20032;-63
2021/07/14 03:08:28;;;;;;;2.13;1.38;;;15.90;78.40;;;;;;5077062;27;20036;-62
2021/07/14 03:10:55;;;;;;;3.80;1.50;;;15.90;78.10;;;;;;5080789;27;20106;-63
2021/07/14 03:13:31;;;;;;;2.30;1.20;;;15.90;78.10;;;;;;5086640;27;22621;-63
2021/07/14 03:15:58;;;;;;;3.58;1.27;;;15.90;78.00;;;;;;5089227;28;20047;-63
2021/07/14 03:18:27;;;;;;;2.40;1.40;;;15.90;78.00;;;;;;5087497;27;20028;-64
2021/07/14 03:20:55;;;;;;;1.38;1.15;;;15.90;78.00;;;;;;5086043;27;20024;-63
2021/07/14 03:23:22;;;;;;;1.52;1.30;;;15.90;77.90;;;;;;5081567;27;20085;-63
2021/07/14 03:25:52;;;;;;;5.22;1.25;;;15.90;77.80;;;;;;5080914;27;20434;-63
2021/07/14 03:28:20;;;;;;;1.35;1.23;;;15.90;77.70;;;;;;5083854;28;20930;-63
2021/07/14 03:30:47;;;;;;;1.95;1.50;;;15.90;77.60;;;;;;5079265;28;20091;-63
2021/07/14 03:33:14;;;;;;;3.55;1.58;;;16.00;77.70;;;;;;5077739;28;20063;-63
2021/07/14 03:35:41;;;;;;;2.05;1.77;;;15.90;77.60;;;;;;5080075;28;20040;-63
2021/07/14 03:38:10;;;;;;;5.55;1.70;;;15.90;78.50;;;;;;5078168;27;20148;-63
2021/07/14 03:40:38;;;;;;;2.63;1.77;;;15.90;77.70;;;;;;5078618;28;20039;-63
2021/07/14 03:43:04;;;;;;;3.55;1.52;;;15.90;77.50;;;;;;5080756;28;20032;-63
2021/07/14 03:45:31;;;;;;;3.90;1.80;;;15.90;77.50;;;;;;5093005;27;20038;-63
2021/07/14 03:47:59;;;;;;;9.90;6.07;;;15.90;77.40;;;;;;5084536;28;20036;-63
2021/07/14 03:50:26;;;;;;;10.48;4.57;;;15.90;77.40;;;;;;5085943;27;20191;-64
2021/07/14 03:52:52;;;;;;;8.45;4.32;;;15.90;77.40;;;;;;5091847;27;20088;-63
2021/07/14 03:55:19;;;;;;;2.63;2.13;;;15.90;77.40;;;;;;5080990;28;20514;-63
2021/07/14 03:57:45;;;;;;;4.50;3.58;;;15.80;77.20;;;;;;5085950;27;20099;-63
2021/07/14 04:00:11;;;;;;;2.92;2.10;;;15.80;77.30;;;;;;5090548;28;20123;-63
2021/07/14 04:02:39;;;;;;;1.98;1.70;;;15.80;77.50;;;;;;5086128;27;20039;-63
2021/07/14 04:05:06;;;;;;;2.25;2.00;;;15.80;77.50;;;;;;5080545;27;20048;-63
2021/07/14 04:07:33;;;;;;;1.67;1.58;;;15.80;77.50;;;;;;5084536;28;20112;-63
2021/07/14 04:10:03;;;;;;;4.50;1.80;;;15.80;77.50;;;;;;5080739;28;20137;-63
2021/07/14 04:12:29;;;;;;;3.58;1.58;;;15.70;77.50;;;;;;5084859;27;20032;-63
2021/07/14 04:14:55;;;;;;;1.58;1.48;;;15.70;77.50;;;;;;5084751;28;20052;-63
2021/07/14 04:17:20;;;;;;;2.17;1.50;;;15.70;77.60;;;;;;5080013;28;20388;-63
2021/07/14 04:19:46;;;;;;;3.40;1.65;;;15.70;77.70;;;;;;5086523;27;20028;-63
2021/07/14 04:22:13;;;;;;;2.05;1.77;;;15.60;77.90;;;;;;5089336;27;20036;-63
2021/07/14 04:24:40;;;;;;;3.13;2.80;;;15.60;78.00;;;;;;5083981;27;20035;-63
2021/07/14 04:27:07;;;;;;;3.85;1.98;;;15.60;78.10;;;;;;5086882;28;20083;-63
2021/07/14 04:29:32;;;;;;;2.60;1.80;;;15.60;78.20;;;;;;5084606;27;20032;-64
2021/07/14 04:31:58;;;;;;;4.93;4.47;;;15.60;78.10;;;;;;5082820;28;20051;-64
2021/07/14 04:34:24;;;;;;;11.30;7.93;;;15.70;78.20;;;;;;5097430;28;20036;-63
2021/07/14 04:36:50;;;;;;;4.07;2.40;;;15.70;78.10;;;;;;5090120;28;20024;-63
2021/07/14 04:39:16;;;;;;;3.45;2.30;;;15.70;77.90;;;;;;5088750;28;20086;-63
2021/07/14 04:41:41;;;;;;;1.35;1.23;;;15.70;77.90;;;;;;5089160;27;20032;-63
2021/07/14 04:44:09;;;;;;;2.80;2.53;;;15.70;77.80;;;;;;5090890;28;20097;-63
2021/07/14 04:46:35;;;;;;;6.38;3.05;;;15.70;77.80;;;;;;5090459;27;20036;-63
2021/07/14 04:49:01;;;;;;;2.60;1.63;;;15.70;77.70;;;;;;5084450;28;20040;-63
2021/07/14 04:51:27;;;;;;;2.90;1.23;;;15.70;77.70;;;;;;5084589;28;20043;-63
2021/07/14 04:53:53;;;;;;;1.85;0.82;;;15.70;77.80;;;;;;5091320;27;20032;-63
2021/07/14 04:56:19;;;;;;;2.38;0.98;;;15.70;77.90;;;;;;5086525;28;20094;-63
2021/07/14 04:58:46;;;;;;;2.85;2.08;;;15.70;78.00;;;;;;5083122;27;20044;-63
2021/07/14 05:01:15;;;;;;;6.05;1.38;;;15.70;78.00;;;;;;5084063;27;20059;-63
2021/07/14 05:03:45;;;;;;;2.15;1.40;;;15.70;78.00;;;;;;5097639;27;20036;-63
2021/07/14 05:06:16;;;;;;;3.50;1.50;;;15.70;78.00;;;;;;5084981;27;20732;-63
2021/07/14 05:08:42;;;;;;;2.58;1.20;;;15.70;77.90;;;;;;5084130;27;20049;-63
2021/07/14 05:11:08;;;;;;;3.13;1.45;;;15.70;77.90;;;;;;5081704;28;20428;-64
2021/07/14 05:13:34;;;;;;;4.07;1.17;;;15.70;77.90;;;;;;5082995;27;20028;-63
2021/07/14 05:16:00;;;;;;;3.83;1.40;;;15.80;78.00;;;;;;5087179;28;20028;-64
2021/07/14 05:18:25;;;;;;;2.38;1.35;;;15.80;78.00;;;;;;5083493;27;20032;-63
2021/07/14 05:20:51;;;;;;;2.15;1.02;;;15.80;78.10;;;;;;5083137;28;20156;-64
2021/07/14 05:23:17;;;;;;;2.22;1.10;;;15.80;78.20;;;;;;5089192;28;20032;-63
2021/07/14 05:25:43;;;;;;;1.35;1.05;;;15.80;78.20;;;;;;5082789;28;20043;-63
2021/07/14 05:28:09;;;;;;;4.70;1.35;;;15.80;78.10;;;;;;5087399;28;21283;-64
2021/07/14 05:30:36;;;;;;;2.20;1.40;;;15.80;78.20;;;;;;5097539;28;20453;-63
2021/07/14 05:33:02;;;;;;;2.45;0.80;;;15.80;78.20;;;;;;5091272;28;20052;-63
2021/07/14 05:35:27;;;;;;;4.35;0.88;;;15.80;78.30;;;;;;5092469;28;20064;-63
2021/07/14 05:37:53;;;;;;;1.35;1.00;;;15.80;78.40;;;;;;5087479;28;20039;-63
2021/07/14 05:40:19;;;;;;;2.50;0.77;;;15.80;78.40;;;;;;5080754;27;20461;-63
2021/07/14 05:42:44;;;;;;;2.58;1.00;;;15.90;78.40;;;;;;5103576;27;20036;-63
2021/07/14 05:45:10;;;;;;;1.05;0.88;;;15.90;78.50;;;;;;5087931;27;20024;-63
2021/07/14 05:47:36;;;;;;;3.40;0.93;;;15.90;78.40;;;;;;5089564;28;20585;-63
2021/07/14 05:50:04;;;;;;;2.75;1.10;;;16.00;78.40;;;;;;5086766;28;20491;-63
2021/07/14 05:52:31;;;;;;;4.43;1.00;;;16.00;78.20;;;;;;5088997;27;20036;-63
2021/07/14 05:54:56;;;;;;;2.33;0.98;;;16.00;78.20;;;;;;5089017;28;20085;-63
2021/07/14 05:57:22;;;;;;;2.17;1.00;;;16.10;78.20;;;;;;5090392;27;20036;-63
2021/07/14 05:59:48;;;;;;;1.58;1.00;;;16.20;78.20;;;;;;5089967;28;20124;-63
2021/07/14 06:02:13;;;;;;;0.90;0.70;;;16.20;78.00;;;;;;5086847;27;20036;-63
2021/07/14 06:04:39;;;;;;;1.40;0.88;;;16.20;77.80;;;;;;5090372;27;20024;-63
2021/07/14 06:07:06;;;;;;;3.42;0.85;;;16.20;77.80;;;;;;5089159;28;20395;-63
2021/07/14 06:09:33;;;;;;;4.05;0.90;;;16.30;77.80;;;;;;5088188;27;20062;-63
2021/07/14 06:11:58;;;;;;;1.13;1.00;;;16.30;77.70;;;;;;5089027;28;20116;-63
2021/07/14 06:14:24;;;;;;;2.15;0.80;;;16.40;77.70;;;;;;5093147;27;20114;-63
2021/07/14 06:16:50;;;;;;;1.10;0.77;;;16.40;77.30;;;;;;5090603;27;20035;-63
2021/07/14 06:19:15;;;;;;;2.42;0.90;;;16.40;77.30;;;;;;5083878;28;20403;-63
2021/07/14 06:21:41;;;;;;;1.25;0.95;;;16.50;77.40;;;;;;5088373;27;20196;-63
2021/07/14 06:24:07;;;;;;;1.92;1.05;;;16.50;77.50;;;;;;5089387;28;20039;-63
2021/07/14 06:26:33;;;;;;;1.85;0.88;;;16.50;77.50;;;;;;5091144;27;20115;-63
2021/07/14 06:28:59;;;;;;;1.05;0.95;;;16.60;77.60;;;;;;5090768;27;20111;-63
2021/07/14 06:31:24;;;;;;;0.88;0.82;;;16.60;77.50;;;;;;5087569;28;20163;-63
2021/07/14 06:33:50;;;;;;;2.95;1.08;;;16.70;77.50;;;;;;5090119;27;20051;-63
2021/07/14 06:36:15;;;;;;;1.05;0.90;;;16.70;77.30;;;;;;5090338;28;20036;-64
2021/07/14 06:38:41;;;;;;;1.17;0.82;;;16.70;77.40;;;;;;5101715;27;20482;-63
2021/07/14 06:41:07;;;;;;;1.10;0.88;;;16.80;77.30;;;;;;5088786;27;20028;-63
2021/07/14 06:43:42;;;;;;;1.50;0.95;;;16.80;76.70;;;;;;5089495;28;20032;-63
2021/07/14 06:46:09;;;;;;;5.93;2.25;;;16.90;76.70;;;;;;5090816;27;20043;-63
2021/07/14 06:48:36;;;;;;;3.63;2.10;;;16.90;76.40;;;;;;5088657;27;20032;-63
2021/07/14 06:51:01;;;;;;;4.70;1.70;;;16.90;76.30;;;;;;5089311;28;20111;-63
2021/07/14 06:53:27;;;;;;;3.58;1.50;;;16.90;76.40;;;;;;5088408;27;20503;-63
2021/07/14 06:55:52;;;;;;;2.75;1.30;;;16.90;76.30;;;;;;5089710;28;20300;-63
2021/07/14 06:58:19;;;;;;;3.42;1.30;;;16.90;76.30;;;;;;5082588;28;20032;-63
2021/07/14 07:00:44;;;;;;;2.53;1.40;;;16.90;76.20;;;;;;5087371;27;20165;-63
2021/07/14 07:03:10;;;;;;;1.95;1.60;;;17.00;76.30;;;;;;5081582;28;20107;-63
2021/07/14 07:05:36;;;;;;;3.03;1.42;;;17.00;76.10;;;;;;5090311;27;20024;-63
2021/07/14 07:08:02;;;;;;;1.63;1.48;;;17.00;76.00;;;;;;5089667;28;20035;-63
2021/07/14 07:10:28;;;;;;;1.98;1.55;;;17.10;76.00;;;;;;5086153;27;20058;-64
2021/07/14 07:12:54;;;;;;;1.90;1.50;;;17.00;75.90;;;;;;5088719;27;20495;-63
2021/07/14 07:15:20;;;;;;;2.60;1.45;;;17.10;76.00;;;;;;5089685;28;20047;-63
2021/07/14 07:17:47;;;;;;;1.85;1.17;;;17.10;75.90;;;;;;5085624;28;20036;-63
2021/07/14 07:20:17;;;;;;;1.40;1.30;;;17.20;75.80;;;;;;5089773;28;20039;-64
2021/07/14 07:22:44;;;;;;;2.03;1.50;;;17.20;75.80;;;;;;5086351;27;20028;-63
2021/07/14 07:25:11;;;;;;;1.60;1.17;;;17.20;75.60;;;;;;5087988;27;20028;-64
2021/07/14 07:27:38;;;;;;;1.52;1.30;;;17.30;75.50;;;;;;5092458;28;20475;-63
2021/07/14 07:30:05;;;;;;;2.33;1.20;;;17.30;75.50;;;;;;5085219;28;20028;-63
2021/07/14 07:32:31;;;;;;;1.30;1.13;;;17.30;75.40;;;;;;5089078;27;20036;-63
2021/07/14 07:34:57;;;;;;;2.58;1.45;;;17.40;75.40;;;;;;5092075;28;20032;-63
2021/07/14 07:37:22;;;;;;;1.70;1.25;;;17.40;75.40;;;;;;5083682;28;20032;-63
2021/07/14 07:39:50;;;;;;;1.88;1.30;;;17.50;75.50;;;;;;5088101;28;20028;-63
2021/07/14 07:42:16;;;;;;;1.35;1.20;;;17.50;75.50;;;;;;5085350;28;20040;-63
2021/07/14 07:44:42;;;;;;;3.08;1.60;;;17.60;75.50;;;;;;5091342;27;20073;-63
2021/07/14 07:47:08;;;;;;;2.95;1.10;;;17.70;75.40;;;;;;5093156;28;20487;-63
2021/07/14 07:49:34;;;;;;;1.25;1.15;;;17.70;75.10;;;;;;5086148;28;20032;-64
2021/07/14 07:52:00;;;;;;;3.25;1.30;;;17.70;74.80;;;;;;5089469;28;20031;-63
2021/07/14 07:54:26;;;;;;;1.60;1.20;;;17.80;74.80;;;;;;5090651;27;20316;-63
2021/07/14 07:56:52;;;;;;;1.33;1.23;;;17.90;74.60;;;;;;5093031;27;20403;-64
2021/07/14 07:59:17;;;;;;;1.88;1.25;;;17.90;74.30;;;;;;5093091;28;20447;-63
2021/07/14 08:01:43;;;;;;;1.48;1.35;;;18.00;74.40;;;;;;5090689;28;20044;-63
2021/07/14 08:04:08;;;;;;;4.18;1.50;;;18.00;74.50;;;;;;5090137;28;20044;-63
2021/07/14 08:06:34;;;;;;;4.03;1.60;;;18.10;74.20;;;;;;5088369;28;20040;-63
2021/07/14 08:09:00;;;;;;;1.20;1.10;;;18.10;73.90;;;;;;5090463;27;20043;-63
2021/07/14 08:11:26;;;;;;;4.47;1.38;;;18.20;73.70;;;;;;5088368;28;20055;-63
2021/07/14 08:13:54;;;;;;;1.20;1.10;;;18.30;73.60;;;;;;5091707;27;20487;-63
2021/07/14 08:16:21;;;;;;;1.13;1.05;;;18.30;73.40;;;;;;5089335;28;20035;-63
2021/07/14 08:18:47;;;;;;;1.98;1.33;;;18.40;73.20;;;;;;5084751;28;20052;-63
2021/07/14 08:21:12;;;;;;;1.55;1.10;;;18.40;73.20;;;;;;5093581;27;20024;-63
2021/07/14 08:23:38;;;;;;;1.85;1.40;;;18.50;73.20;;;;;;5090052;27;20075;-63
2021/07/14 08:26:04;;;;;;;2.25;1.40;;;18.50;72.80;;;;;;5091231;27;20043;-64
2021/07/14 08:28:29;;;;;;;1.60;1.50;;;18.50;73.80;;;;;;5091642;27;20029;-63
2021/07/14 08:30:55;;;;;;;2.08;1.60;;;18.60;72.60;;;;;;5093548;28;20395;-63
2021/07/14 08:33:21;;;;;;;1.90;1.70;;;18.60;72.30;;;;;;5093130;27;20028;-64
2021/07/14 08:35:46;;;;;;;3.85;1.70;;;18.70;72.30;;;;;;5091667;28;20044;-63
2021/07/14 08:38:12;;;;;;;1.73;1.63;;;18.70;72.10;;;;;;5087137;27;20035;-63
2021/07/14 08:40:39;;;;;;;1.98;1.60;;;18.70;72.00;;;;;;5089053;27;20491;-63
2021/07/14 08:43:09;;;;;;;2.97;1.67;;;18.70;71.80;;;;;;5092125;28;20035;-63
2021/07/14 08:45:35;;;;;;;1.90;1.70;;;18.80;72.00;;;;;;5092017;27;20089;-63
2021/07/14 08:48:01;;;;;;;2.22;1.60;;;18.80;71.90;;;;;;5091533;28;20040;-63
2021/07/14 08:50:27;;;;;;;2.03;1.80;;;18.90;71.90;;;;;;5087660;27;20032;-64
2021/07/14 08:52:53;;;;;;;2.83;1.67;;;18.90;72.00;;;;;;5092131;27;20043;-63
2021/07/14 08:55:21;;;;;;;1.70;1.60;;;18.90;71.60;;;;;;5091864;28;20047;-63
2021/07/14 08:57:47;;;;;;;1.48;1.38;;;19.00;71.80;;;;;;5091335;27;20434;-63
2021/07/14 09:00:17;;;;;;;2.28;1.70;;;19.00;71.80;;;;;;5092947;28;20036;-63
2021/07/14 09:02:43;;;;;;;3.25;1.83;;;19.10;71.50;;;;;;5092049;27;20024;-63
2021/07/14 09:05:10;;;;;;;1.70;1.50;;;19.20;71.40;;;;;;5085799;27;20080;-63
2021/07/14 09:07:38;;;;;;;1.85;1.75;;;19.20;71.30;;;;;;5090844;28;20444;-63
2021/07/14 09:10:05;;;;;;;1.77;1.67;;;19.20;70.70;;;;;;5088890;27;20096;-63
2021/07/14 09:12:37;;;;;;;2.05;1.67;;;19.30;70.90;;;;;;5088246;27;20032;-63
2021/07/14 09:15:10;;;;;;;2.92;1.58;;;19.30;70.70;;;;;;5091379;28;20411;-63
2021/07/14 09:17:46;;;;;;;2.15;1.48;;;19.40;70.90;;;;;;5091027;27;20028;-63
2021/07/14 09:20:15;;;;;;;2.90;1.60;;;19.40;70.60;;;;;;5085207;28;20032;-63
2021/07/14 09:22:41;;;;;;;2.03;1.80;;;19.50;70.60;;;;;;5091491;27;20047;-63
2021/07/14 09:25:16;;;;;;;2.47;2.20;;;19.50;70.40;;;;;;5106199;27;20429;-63
2021/07/14 09:28:03;;;;;;;2.08;1.85;;;19.50;70.60;;;;;;5088106;28;20039;-64
2021/07/14 09:30:29;;;;;;;2.35;1.70;;;19.60;70.00;;;;;;5106248;27;20558;-63
2021/07/14 09:33:05;;;;;;;2.95;1.73;;;19.70;70.80;;;;;;5096106;27;20059;-63
2021/07/14 09:35:45;;;;;;;1.92;1.83;;;19.80;70.40;;;;;;5089526;28;20039;-63
2021/07/14 09:38:15;;;;;;;4.90;1.95;;;19.80;70.00;;;;;;5090052;27;20024;-63
2021/07/14 09:40:45;;;;;;;2.10;1.88;;;19.90;70.00;;;;;;5086876;28;20227;-63
2021/07/14 09:43:12;;;;;;;4.57;1.73;;;20.00;70.00;;;;;;5096164;27;20502;-64
2021/07/14 09:45:53;;;;;;;2.40;2.10;;;20.20;70.10;;;;;;5091862;27;20032;-63
2021/07/14 09:48:24;;;;;;;3.90;2.17;;;20.20;69.50;;;;;;5087743;28;20064;-63
2021/07/14 09:50:54;;;;;;;2.70;2.00;;;20.30;69.00;;;;;;5104262;27;20123;-63
2021/07/14 09:53:22;;;;;;;2.10;1.90;;;20.30;69.10;;;;;;5087152;27;20127;-63
2021/07/14 09:55:50;;;;;;;2.20;2.00;;;20.40;69.00;;;;;;5089773;28;20032;-63
2021/07/14 09:58:21;;;;;;;2.40;2.20;;;20.40;68.60;;;;;;5090454;27;20032;-63
2021/07/14 10:00:52;;;;;;;2.38;2.17;;;20.50;68.90;;;;;;5097335;27;20409;-63
2021/07/14 10:03:38;;;;;;;2.17;2.03;;;20.50;68.30;;;;;;5088737;28;20031;-63
2021/07/14 10:06:15;;;;;;;3.15;2.22;;;20.60;67.40;;;;;;5086929;27;20034;-63
2021/07/14 10:08:50;;;;;;;2.40;2.20;;;20.60;67.00;;;;;;5086612;27;20523;-63
2021/07/14 10:11:21;;;;;;;2.42;2.00;;;20.60;67.70;;;;;;5086179;28;20036;-63
2021/07/14 10:13:51;;;;;;;2.00;1.90;;;20.60;67.10;;;;;;5093932;27;20040;-64
2021/07/14 10:16:18;;;;;;;2.55;2.35;;;20.70;67.30;;;;;;5090235;28;20299;-63
2021/07/14 10:19:06;;;;;;;2.40;2.20;;;20.80;67.00;;;;;;5088986;28;20085;-64
2021/07/14 10:21:34;;;;;;;2.35;2.15;;;20.70;65.60;;;;;;5084000;27;20100;-63
2021/07/14 10:24:00;;;;;;;2.15;2.05;;;20.80;66.60;;;;;;5090106;28;20466;-63
2021/07/14 10:26:27;;;;;;;2.42;2.20;;;20.80;66.50;;;;;;5090064;27;21938;-64
2021/07/14 10:28:54;;;;;;;2.00;1.90;;;20.80;66.00;;;;;;5089698;28;20349;-64
2021/07/14 10:31:22;;;;;;;2.28;1.80;;;20.80;66.00;;;;;;5088350;28;20040;-64
2021/07/14 10:33:51;;;;;;;2.00;1.90;;;20.70;65.70;;;;;;5088867;27;20028;-63
2021/07/14 10:36:21;;;;;;;2.08;1.90;;;20.80;65.60;;;;;;5084054;28;20031;-63
2021/07/14 10:38:50;;;;;;;2.70;2.50;;;20.80;65.90;;;;;;5097990;27;20507;-63
2021/07/14 10:41:16;;;;;;;1.92;1.55;;;20.80;65.90;;;;;;5085133;28;20044;-64
2021/07/14 10:43:44;;;;;;;1.52;1.42;;;20.80;65.70;;;;;;5088641;28;20395;-63
2021/07/14 10:46:10;;;;;;;1.60;1.50;;;20.80;65.60;;;;;;5087583;27;20042;-63
2021/07/14 10:48:41;;;;;;;1.70;1.60;;;20.80;65.60;;;;;;5088671;27;20182;-63
2021/07/14 10:51:07;;;;;;;2.15;1.60;;;20.80;65.80;;;;;;5090267;28;20031;-64
2021/07/14 10:53:34;;;;;;;2.50;1.70;;;20.80;66.00;;;;;;5084509;27;20037;-63
2021/07/14 10:56:01;;;;;;;1.42;1.33;;;20.90;65.70;;;;;;5088675;28;20101;-63
2021/07/14 10:58:29;;;;;;;8.52;1.70;;;20.90;65.70;;;;;;5087003;27;20036;-63
2021/07/14 11:00:57;;;;;;;1.70;1.60;;;20.90;65.40;;;;;;5087786;28;20029;-63
2021/07/14 11:03:36;;;;;;;1.73;1.48;;;20.90;65.50;;;;;;5099447;28;20221;-63
2021/07/14 11:06:06;;;;;;;1.30;1.20;;;21.00;65.30;;;;;;5088653;27;20028;-64
2021/07/14 11:08:38;;;;;;;1.58;1.48;;;21.00;65.30;;;;;;5090208;27;20170;-63
2021/07/14 11:11:04;;;;;;;3.22;1.30;;;21.00;65.10;;;;;;5092143;28;20032;-63
2021/07/14 11:13:34;;;;;;;1.90;1.20;;;21.10;65.20;;;;;;5090297;28;20107;-63
2021/07/14 11:16:29;;;;;;;1.40;1.23;;;21.10;64.20;;;;;;5093989;27;20040;-64
2021/07/14 11:19:00;;;;;;;1.83;1.48;;;21.20;64.40;;;;;;5093405;28;20420;-63
2021/07/14 11:21:47;;;;;;;3.00;1.30;;;21.20;64.70;;;;;;5090775;27;20040;-63
2021/07/14 11:24:46;;;;;;;1.50;1.38;;;21.20;64.10;;;;;;5090841;28;20035;-63
2021/07/14 11:27:26;;;;;;;1.40;1.30;;;21.30;64.40;;;;;;5088352;27;20119;-63
2021/07/14 11:30:16;;;;;;;2.85;1.40;;;21.30;64.60;;;;;;5090023;28;20044;-63
2021/07/14 11:32:42;;;;;;;1.77;1.40;;;21.40;65.10;;;;;;5094709;27;20040;-63
2021/07/14 11:35:13;;;;;;;1.38;1.20;;;21.50;65.20;;;;;;5098901;28;20613;-64
2021/07/14 11:37:42;;;;;;;1.60;1.05;;;21.60;64.50;;;;;;5092510;27;20048;-64
2021/07/14 11:40:25;;;;;;;1.50;1.40;;;21.60;64.80;;;;;;5089957;28;20050;-63
2021/07/14 11:42:51;;;;;;;1.20;1.10;;;21.70;63.30;;;;;;5091580;28;20028;-63
2021/07/14 11:45:33;;;;;;;1.70;1.60;;;21.80;63.70;;;;;;5091895;27;20099;-63
2021/07/14 11:48:28;;;;;;;1.25;1.13;;;21.90;62.60;;;;;;5091610;27;20035;-63
2021/07/14 11:50:56;;;;;;;2.00;1.33;;;21.90;60.90;;;;;;5081566;28;20369;-64
2021/07/14 11:53:31;;;;;;;2.95;1.50;;;21.90;61.60;;;;;;5103598;27;20058;-63
2021/07/14 11:56:09;;;;;;;1.52;1.42;;;21.90;61.30;;;;;;5088511;27;20197;-63
2021/07/14 11:58:59;;;;;;;1.13;1.10;;;21.90;60.30;;;;;;5090851;27;20093;-64
2021/07/14 12:01:25;;;;;;;1.67;1.10;;;21.80;61.00;;;;;;5098978;27;20407;-63
2021/07/14 12:04:00;;;;;;;1.30;1.20;;;21.80;61.50;;;;;;5092131;28;20028;-64
2021/07/14 12:09:13;;;;;;;1.50;1.00;;;21.90;60.30;;;;;;5092240;27;20491;-63
2021/07/14 12:12:27;;;;;;;0.85;0.80;;;21.90;60.70;;;;;;5089414;28;20036;-63
2021/07/14 12:14:54;;;;;;;1.35;0.82;;;21.90;59.90;;;;;;5030321;28;20029;-64
2021/07/14 12:17:27;;;;;;;2.55;1.10;;;21.90;59.90;;;;;;5075677;27;20028;-63
2021/07/14 12:19:58;;;;;;;0.88;0.80;;;22.00;59.80;;;;;;5089403;28;20495;-63
2021/07/14 12:22:32;;;;;;;1.40;0.90;;;22.00;59.30;;;;;;5090508;27;20132;-65
2021/07/14 12:25:09;;;;;;;1.00;0.90;;;22.10;59.20;;;;;;5089851;28;20703;-63
2021/07/14 12:27:39;;;;;;;1.42;0.80;;;22.10;59.00;;;;;;5092498;28;20123;-63
2021/07/14 12:30:08;;;;;;;3.20;0.85;;;22.10;59.20;;;;;;5091048;27;20032;-63
2021/07/14 12:32:35;;;;;;;0.90;0.73;;;22.10;58.70;;;;;;5106251;27;20028;-63
2021/07/14 12:35:06;;;;;;;1.63;0.90;;;22.20;59.30;;;;;;5087865;27;20402;-63
2021/07/14 12:37:35;;;;;;;0.85;0.85;;;22.20;58.70;;;;;;5089800;27;20189;-63
2021/07/14 12:40:01;;;;;;;0.75;0.75;;;22.20;58.90;;;;;;5089099;28;20039;-63
2021/07/14 12:42:27;;;;;;;0.82;0.82;;;22.20;58.50;;;;;;5089514;27;20541;-64
2021/07/14 12:44:53;;;;;;;1.70;0.80;;;22.20;58.30;;;;;;5094339;28;20031;-63
2021/07/14 12:47:22;;;;;;;0.95;0.95;;;22.30;57.90;;;;;;5089384;28;20061;-63
2021/07/14 12:49:51;;;;;;;1.20;1.08;;;22.30;57.50;;;;;;5090612;27;20028;-63
2021/07/14 12:52:20;;;;;;;0.85;0.85;;;22.40;58.10;;;;;;5090005;28;20089;-63
2021/07/14 12:54:47;;;;;;;0.85;0.85;;;22.50;57.90;;;;;;5085999;28;20040;-63
2021/07/14 12:57:28;;;;;;;0.85;0.85;;;22.60;58.00;;;;;;5091304;27;20043;-63
2021/07/14 12:59:57;;;;;;;0.90;0.90;;;22.70;57.20;;;;;;5091553;27;20039;-64
2021/07/14 13:02:29;;;;;;;0.80;0.80;;;22.80;57.90;;;;;;5106769;27;20081;-64
2021/07/14 13:04:58;;;;;;;1.00;0.90;;;22.80;57.50;;;;;;5087970;28;20024;-64